createdAt,value
2022-12-08T00:01:20.665Z,-0.78
2022-12-08T00:03:48.792Z,-0.92
2022-12-08T00:06:42.093Z,-0.93
2022-12-08T00:09:23.868Z,-0.77
2022-12-08T00:11:57.935Z,-0.68
2022-12-08T00:14:28.517Z,-0.62
2022-12-08T00:16:58.584Z,-0.57
2022-12-08T00:19:27.515Z,-0.65
2022-12-08T00:21:56.204Z,-0.66
2022-12-08T00:24:25.569Z,-0.63
2022-12-08T00:26:53.450Z,-0.66
2022-12-08T00:29:21.395Z,-0.66
2022-12-08T00:31:49.340Z,-0.64
2022-12-08T00:34:18.792Z,-0.55
2022-12-08T00:36:47.199Z,-0.55
2022-12-08T00:39:16.723Z,-0.55
2022-12-08T00:42:13.441Z,-0.49
2022-12-08T00:44:41.703Z,-0.44
2022-12-08T00:47:09.584Z,-0.47
2022-12-08T00:49:38.879Z,-0.53
2022-12-08T00:52:06.807Z,-0.57
2022-12-08T00:54:34.741Z,-0.39
2022-12-08T00:57:02.720Z,-0.39
2022-12-08T00:59:30.671Z,-0.35
2022-12-08T01:01:58.586Z,-0.20
2022-12-08T01:04:26.479Z,0.03
2022-12-08T01:06:56.360Z,0.07
2022-12-08T01:09:24.405Z,-0.21
2022-12-08T01:11:52.330Z,-0.31
2022-12-08T01:14:20.229Z,-0.27
2022-12-08T01:16:48.416Z,-0.27
2022-12-08T01:19:17.911Z,-0.17
2022-12-08T01:21:46.998Z,-0.10
2022-12-08T01:24:17.982Z,-0.18
2022-12-08T01:26:46.425Z,-0.27
2022-12-08T01:29:14.504Z,-0.29
2022-12-08T01:31:42.457Z,-0.33
2022-12-08T01:34:12.163Z,-0.09
2022-12-08T01:36:40.229Z,-0.33
2022-12-08T01:39:09.357Z,-0.49
2022-12-08T01:41:40.670Z,-0.53
2022-12-08T01:44:45.867Z,-0.57
2022-12-08T01:47:13.782Z,-0.49
2022-12-08T01:49:41.735Z,-0.57
2022-12-08T01:52:13.083Z,-0.70
2022-12-08T01:54:44.853Z,-0.74
2022-12-08T01:57:16.747Z,-0.69
2022-12-08T01:59:49.711Z,-0.75
2022-12-08T02:02:17.755Z,-0.89
2022-12-08T02:04:45.705Z,-0.91
2022-12-08T02:07:14.620Z,-0.93
2022-12-08T02:09:43.046Z,-0.67
2022-12-08T02:12:11.457Z,-0.88
2022-12-08T02:14:41.127Z,-0.96
2022-12-08T02:17:18.073Z,-0.92
2022-12-08T02:20:13.214Z,-0.88
2022-12-08T02:22:47.879Z,-0.96
2022-12-08T02:25:20.785Z,-1.04
2022-12-08T02:27:53.763Z,-1.00
2022-12-08T02:30:26.079Z,-0.93
2022-12-08T02:33:11.391Z,-0.86
2022-12-08T02:35:46.183Z,-0.85
2022-12-08T02:38:19.169Z,-0.71
2022-12-08T02:40:51.661Z,-0.59
2022-12-08T02:43:25.021Z,-0.77
2022-12-08T02:45:56.469Z,-0.84
2022-12-08T02:48:24.427Z,-0.72
2022-12-08T02:50:53.708Z,-0.63
2022-12-08T02:53:21.602Z,-0.59
2022-12-08T02:55:57.847Z,-0.85
2022-12-08T02:58:39.071Z,-0.95
2022-12-08T03:01:18.718Z,-0.92
2022-12-08T03:03:49.318Z,-0.84
2022-12-08T03:06:26.773Z,-0.88
2022-12-08T03:08:57.589Z,-0.74
2022-12-08T03:11:31.490Z,-0.59
2022-12-08T03:14:01.900Z,-0.53
2022-12-08T03:16:32.148Z,-0.43
2022-12-08T03:19:02.971Z,-0.42
2022-12-08T03:21:32.796Z,-0.34
2022-12-08T03:24:03.911Z,-0.35
2022-12-08T03:26:34.997Z,-0.32
2022-12-08T03:29:02.993Z,-0.66
2022-12-08T03:31:32.964Z,-0.76
2022-12-08T03:34:01.338Z,-0.81
2022-12-08T03:36:29.646Z,-0.72
2022-12-08T03:38:58.915Z,-0.69
2022-12-08T03:41:27.028Z,-0.69
2022-12-08T03:43:56.416Z,-0.65
2022-12-08T03:48:52.478Z,-0.54
2022-12-08T03:51:20.731Z,-0.56
2022-12-08T03:53:49.018Z,-0.50
2022-12-08T03:56:24.920Z,-0.60
2022-12-08T03:58:52.981Z,-0.55
2022-12-08T04:01:21.016Z,-0.59
2022-12-08T04:03:49.392Z,-0.31
2022-12-08T04:06:18.078Z,-0.22
2022-12-08T04:08:46.002Z,-0.44
2022-12-08T04:11:13.987Z,-0.60
2022-12-08T04:13:43.699Z,-0.41
2022-12-08T04:16:16.782Z,-0.20
2022-12-08T04:18:44.733Z,-0.33
2022-12-08T04:21:12.665Z,-0.40
2022-12-08T04:23:40.617Z,-0.54
2022-12-08T04:26:09.268Z,-0.62
2022-12-08T04:28:37.287Z,-0.57
2022-12-08T04:31:07.010Z,-0.38
2022-12-08T04:33:35.284Z,-0.39
2022-12-08T04:36:03.674Z,-0.46
2022-12-08T04:38:31.671Z,-0.40
2022-12-08T04:40:59.594Z,-0.45
2022-12-08T04:43:27.484Z,-0.44
2022-12-08T04:45:55.380Z,-0.41
2022-12-08T04:48:24.687Z,-0.19
2022-12-08T04:50:52.659Z,-0.17
2022-12-08T04:53:21.327Z,-0.18
2022-12-08T04:55:49.822Z,-0.10
2022-12-08T04:58:19.520Z,-0.17
2022-12-08T05:00:48.156Z,-0.35
2022-12-08T05:03:16.889Z,-0.38
2022-12-08T05:05:46.937Z,-0.34
2022-12-08T05:08:21.551Z,-0.44
2022-12-08T05:10:49.484Z,-0.46
2022-12-08T05:13:17.511Z,-0.42
2022-12-08T05:15:45.421Z,-0.47
2022-12-08T05:18:13.650Z,-0.49
2022-12-08T05:20:41.541Z,-0.43
2022-12-08T05:23:10.781Z,-0.48
2022-12-08T05:25:38.702Z,-0.44
2022-12-08T05:28:39.637Z,-0.31
2022-12-08T05:30:54.596Z,-0.41
2022-12-08T05:33:22.477Z,-0.38
2022-12-08T05:35:50.380Z,-0.07
2022-12-08T05:38:20.436Z,-0.17
2022-12-08T05:40:48.339Z,-0.41
2022-12-08T05:43:16.355Z,-0.34
2022-12-08T05:45:44.278Z,-0.41
2022-12-08T05:48:12.216Z,-0.37
2022-12-08T05:50:40.748Z,-0.40
2022-12-08T05:53:08.618Z,-0.42
2022-12-08T05:55:37.931Z,-0.29
2022-12-08T05:58:07.979Z,-0.41
2022-12-08T06:00:36.108Z,-0.52
2022-12-08T06:03:04.203Z,-0.28
2022-12-08T06:05:33.988Z,-0.32
2022-12-08T06:08:01.970Z,-0.23
2022-12-08T06:10:31.006Z,-0.10
2022-12-08T06:13:00.908Z,-0.26
2022-12-08T06:15:28.948Z,-0.10
2022-12-08T06:17:56.865Z,0.08
2022-12-08T06:20:24.731Z,-0.11
2022-12-08T06:22:52.645Z,0.04
2022-12-08T06:25:20.531Z,-0.14
2022-12-08T06:27:48.485Z,-0.27
2022-12-08T06:30:18.604Z,-0.23
2022-12-08T06:32:46.526Z,-0.08
2022-12-08T06:35:14.463Z,-0.01
2022-12-08T06:37:42.348Z,-0.14
2022-12-08T06:40:11.212Z,-0.22
2022-12-08T06:42:44.698Z,-0.28
2022-12-08T06:45:14.409Z,-0.27
2022-12-08T06:47:43.918Z,-0.32
2022-12-08T06:50:14.593Z,-0.31
2022-12-08T06:52:54.313Z,-0.23
2022-12-08T06:55:57.477Z,-0.05
2022-12-08T06:58:14.767Z,0.05
2022-12-08T07:00:43.386Z,0.10
2022-12-08T07:03:13.815Z,0.28
2022-12-08T07:05:41.857Z,0.07
2022-12-08T07:08:10.269Z,-0.10
2022-12-08T07:10:38.583Z,0.06
2022-12-08T07:13:06.535Z,-0.14
2022-12-08T07:15:34.467Z,-0.16
2022-12-08T07:18:02.492Z,-0.16
2022-12-08T07:20:31.787Z,-0.10
2022-12-08T07:22:59.710Z,0.03
2022-12-08T07:25:27.728Z,0.36
2022-12-08T07:27:55.655Z,0.46
2022-12-08T07:30:23.583Z,0.48
2022-12-08T07:32:51.498Z,0.42
2022-12-08T07:35:20.136Z,0.54
2022-12-08T07:37:49.408Z,0.68
2022-12-08T07:40:17.823Z,0.86
2022-12-08T07:42:45.722Z,0.91
2022-12-08T07:45:13.656Z,0.77
2022-12-08T07:47:41.519Z,0.79
2022-12-08T07:50:09.941Z,0.79
2022-12-08T07:52:37.851Z,0.83
2022-12-08T07:55:08.262Z,0.88
2022-12-08T07:57:36.227Z,0.99
2022-12-08T08:00:06.646Z,1.14
2022-12-08T08:02:34.904Z,1.03
2022-12-08T08:05:03.155Z,0.98
2022-12-08T08:07:32.248Z,1.04
2022-12-08T08:10:00.279Z,1.05
2022-12-08T08:12:31.871Z,1.22
2022-12-08T08:15:00.278Z,1.39
2022-12-08T08:17:28.538Z,1.35
2022-12-08T08:19:56.693Z,1.41
2022-12-08T08:22:25.658Z,1.72
2022-12-08T08:24:53.572Z,1.72
2022-12-08T08:27:21.513Z,1.94
2022-12-08T08:29:50.827Z,1.88
2022-12-08T08:32:18.723Z,2.09
2022-12-08T08:34:46.598Z,2.16
2022-12-08T08:37:14.506Z,2.13
2022-12-08T08:39:43.112Z,2.27
2022-12-08T08:42:11.136Z,2.38
2022-12-08T08:44:39.135Z,2.48
2022-12-08T08:47:08.429Z,2.59
2022-12-08T08:49:36.459Z,2.55
2022-12-08T08:52:05.425Z,2.47
2022-12-08T08:54:33.378Z,2.38
2022-12-08T08:57:02.374Z,2.54
2022-12-08T08:59:30.411Z,2.59
2022-12-08T09:01:58.338Z,2.61
2022-12-08T09:04:27.840Z,2.52
2022-12-08T09:06:55.865Z,2.69
2022-12-08T09:09:23.819Z,2.72
2022-12-08T09:11:51.744Z,2.55
2022-12-08T09:14:20.085Z,2.75
2022-12-08T09:16:48.210Z,2.55
2022-12-08T09:19:16.375Z,2.69
2022-12-08T09:21:45.745Z,2.87
2022-12-08T09:24:15.969Z,3.16
2022-12-08T09:26:44.634Z,3.27
2022-12-08T09:29:13.745Z,3.37
2022-12-08T09:31:41.948Z,3.37
2022-12-08T09:34:10.427Z,3.43
2022-12-08T09:36:38.434Z,3.51
2022-12-08T09:39:07.776Z,3.52
2022-12-08T09:41:42.065Z,3.56
2022-12-08T09:44:30.163Z,3.81
2022-12-08T09:46:59.191Z,3.81
2022-12-08T09:49:34.513Z,4.01
2022-12-08T09:52:02.587Z,4.14
2022-12-08T09:54:34.698Z,4.32
2022-12-08T09:57:06.933Z,4.59
2022-12-08T09:59:35.948Z,4.62
2022-12-08T10:02:05.943Z,4.73
2022-12-08T10:04:36.468Z,4.60
2022-12-08T10:07:07.412Z,4.59
2022-12-08T10:09:41.345Z,5.23
2022-12-08T10:12:17.075Z,5.61
2022-12-08T10:14:47.475Z,5.85
2022-12-08T10:17:19.257Z,5.80
2022-12-08T10:19:48.116Z,5.48
2022-12-08T10:22:23.151Z,5.10
2022-12-08T10:24:58.942Z,4.99
2022-12-08T10:27:27.033Z,5.02
2022-12-08T10:29:54.965Z,5.11
2022-12-08T10:32:24.145Z,5.48
2022-12-08T10:35:04.363Z,5.61
2022-12-08T10:37:32.274Z,5.49
2022-12-08T10:40:03.435Z,5.49
2022-12-08T10:42:36.668Z,5.60
2022-12-08T10:45:23.134Z,5.72
2022-12-08T10:47:59.464Z,5.84
2022-12-08T10:50:32.528Z,5.66
2022-12-08T10:53:01.722Z,5.74
2022-12-08T10:55:40.976Z,5.89
2022-12-08T10:58:27.317Z,5.98
2022-12-08T11:00:57.017Z,6.10
2022-12-08T11:03:29.804Z,6.15
2022-12-08T11:06:02.822Z,6.15
2022-12-08T11:08:35.312Z,6.27
2022-12-08T11:11:05.071Z,5.94
2022-12-08T11:13:33.047Z,5.61
2022-12-08T11:16:01.015Z,5.70
2022-12-08T11:18:30.992Z,5.67
2022-12-08T11:21:04.084Z,5.19
2022-12-08T11:23:32.025Z,4.86
2022-12-08T11:26:09.032Z,4.73
2022-12-08T11:28:37.738Z,4.55
2022-12-08T11:31:20.439Z,4.61
2022-12-08T11:33:50.169Z,4.47
2022-12-08T11:36:18.242Z,4.42
2022-12-08T11:38:48.553Z,4.74
2022-12-08T11:41:19.041Z,4.88
2022-12-08T11:43:49.729Z,5.00
2022-12-08T11:46:21.817Z,5.24
2022-12-08T11:48:51.975Z,5.06
2022-12-08T11:51:24.224Z,4.76
2022-12-08T11:54:14.621Z,4.49
2022-12-08T11:56:46.661Z,4.23
2022-12-08T11:59:20.387Z,4.05
2022-12-08T12:01:48.427Z,3.85
2022-12-08T12:04:22.292Z,3.57
2022-12-08T12:07:26.022Z,3.57
2022-12-08T12:10:12.165Z,3.51
2022-12-08T12:12:52.379Z,3.34
2022-12-08T12:15:35.249Z,3.45
2022-12-08T12:18:04.820Z,3.61
2022-12-08T12:20:35.287Z,3.68
2022-12-08T12:23:06.477Z,4.05
2022-12-08T12:25:36.255Z,4.22
2022-12-08T12:28:08.162Z,4.30
2022-12-08T12:30:52.946Z,4.52
2022-12-08T12:33:21.612Z,4.45
2022-12-08T12:35:49.905Z,4.31
2022-12-08T12:38:40.885Z,4.48
2022-12-08T12:41:09.303Z,4.55
2022-12-08T12:43:39.996Z,4.64
2022-12-08T12:46:42.054Z,4.76
2022-12-08T12:49:48.741Z,4.87
2022-12-08T12:52:53.234Z,5.00
2022-12-08T12:55:49.615Z,4.77
2022-12-08T12:58:37.067Z,4.74
2022-12-08T13:01:46.432Z,4.95
2022-12-08T13:04:14.496Z,4.88
2022-12-08T13:06:44.581Z,4.75
2022-12-08T13:09:24.904Z,4.60
2022-12-08T13:11:55.232Z,4.61
2022-12-08T13:14:35.107Z,4.70
2022-12-08T13:17:08.804Z,4.71
2022-12-08T13:19:38.131Z,4.69
2022-12-08T13:22:44.654Z,4.84
2022-12-08T13:25:46.005Z,4.82
2022-12-08T13:28:19.939Z,4.68
2022-12-08T13:30:48.908Z,4.58
2022-12-08T13:33:21.012Z,4.64
2022-12-08T13:35:53.329Z,4.53
2022-12-08T13:38:23.627Z,4.57
2022-12-08T13:40:51.952Z,4.55
2022-12-08T13:43:32.169Z,4.38
2022-12-08T13:57:28.732Z,3.98
2022-12-08T14:00:01.270Z,3.94
2022-12-08T14:02:31.912Z,3.97
2022-12-08T14:05:34.893Z,3.95
2022-12-08T14:07:51.010Z,4.01
2022-12-08T14:10:21.373Z,3.95
2022-12-08T14:12:53.623Z,3.91
2022-12-08T14:15:22.337Z,3.82
2022-12-08T14:17:53.352Z,3.75
2022-12-08T14:20:25.902Z,3.73
2022-12-08T14:22:54.460Z,3.67
2022-12-08T14:25:24.046Z,3.71
2022-12-08T14:27:58.077Z,3.61
2022-12-08T14:30:26.515Z,3.55
2022-12-08T14:32:56.522Z,3.57
2022-12-08T14:35:28.781Z,3.40
2022-12-08T14:37:58.586Z,3.26
2022-12-08T14:40:33.667Z,3.11
2022-12-08T14:43:14.671Z,2.96
2022-12-08T14:45:48.876Z,2.89
2022-12-08T14:48:20.908Z,2.85
2022-12-08T14:51:01.750Z,2.62
2022-12-08T14:53:32.529Z,2.70
2022-12-08T14:56:00.432Z,2.40
2022-12-08T14:58:30.192Z,2.27
2022-12-08T15:00:59.664Z,2.01
2022-12-08T15:03:28.845Z,1.85
2022-12-08T15:06:00.250Z,1.76
2022-12-08T15:08:28.287Z,1.58
2022-12-08T15:11:26.085Z,1.37
2022-12-08T15:13:55.292Z,1.25
2022-12-08T15:16:27.137Z,1.20
2022-12-08T15:19:05.395Z,1.09
2022-12-08T15:21:38.438Z,1.08
2022-12-08T15:24:06.743Z,1.01
2022-12-08T15:26:41.400Z,1.01
2022-12-08T15:29:14.301Z,0.82
2022-12-08T15:31:42.266Z,0.68
2022-12-08T15:34:10.180Z,0.58
2022-12-08T15:36:40.096Z,0.58
2022-12-08T15:39:15.903Z,0.49
2022-12-08T15:41:43.820Z,0.43
2022-12-08T15:44:11.703Z,0.37
2022-12-08T15:46:39.664Z,0.32
2022-12-08T15:49:07.616Z,0.34
2022-12-08T15:51:36.803Z,0.20
2022-12-08T15:54:06.206Z,0.11
2022-12-08T15:56:34.432Z,0.20
2022-12-08T15:59:05.335Z,0.33
2022-12-08T16:01:33.364Z,0.31
2022-12-08T16:07:20.143Z,0.49
2022-12-08T16:09:41.892Z,0.54
2022-12-08T16:12:57.158Z,0.65
2022-12-08T16:18:15.696Z,0.81
2022-12-08T16:21:08.092Z,0.79
2022-12-08T16:23:42.957Z,0.78
2022-12-08T16:26:35.633Z,0.79
2022-12-08T16:29:02.261Z,0.67
2022-12-08T16:31:30.352Z,0.62
2022-12-08T16:33:58.347Z,0.60
2022-12-08T16:36:26.224Z,0.65
2022-12-08T16:38:54.151Z,0.72
2022-12-08T16:41:40.601Z,0.79
2022-12-08T16:44:08.475Z,0.80
2022-12-08T16:46:37.031Z,0.98
2022-12-08T16:49:06.151Z,1.21
2022-12-08T16:51:34.047Z,1.29
2022-12-08T16:54:02.043Z,1.17
2022-12-08T16:56:33.492Z,0.86
2022-12-08T16:59:02.765Z,0.93
2022-12-08T17:01:30.964Z,0.99
2022-12-08T17:06:46.959Z,0.98
2022-12-08T17:09:14.940Z,1.10
2022-12-08T17:11:44.463Z,1.27
2022-12-08T17:14:12.778Z,1.32
2022-12-08T17:16:40.869Z,1.49
2022-12-08T17:19:09.106Z,1.33
2022-12-08T17:21:37.033Z,1.21
2022-12-08T17:24:05.244Z,1.08
2022-12-08T17:26:33.166Z,1.20
2022-12-08T17:29:03.889Z,1.11
2022-12-08T17:31:32.952Z,0.93
2022-12-08T17:34:01.426Z,0.87
2022-12-08T17:36:29.371Z,0.92
2022-12-08T17:38:59.471Z,1.00
2022-12-08T17:41:27.435Z,1.15
2022-12-08T17:43:55.357Z,1.25
2022-12-08T17:46:24.910Z,1.26
2022-12-08T17:48:53.348Z,1.26
2022-12-08T17:51:21.261Z,1.09
2022-12-08T17:53:49.199Z,0.92
2022-12-08T17:56:18.972Z,0.92
2022-12-08T17:58:51.321Z,0.87
2022-12-08T18:01:22.442Z,0.61
2022-12-08T18:03:52.304Z,0.55
2022-12-08T18:06:20.305Z,0.41
2022-12-08T18:08:48.302Z,0.40
2022-12-08T18:11:17.797Z,0.24
2022-12-08T18:13:46.351Z,0.18
2022-12-08T18:16:14.529Z,0.03
2022-12-08T18:18:42.503Z,-0.04
2022-12-08T18:21:12.006Z,-0.23
2022-12-08T18:23:41.713Z,-0.29
2022-12-08T18:26:10.964Z,-0.41
2022-12-08T18:28:39.310Z,-0.49
2022-12-08T18:31:10.085Z,-0.61
2022-12-08T18:33:38.215Z,-0.69
2022-12-08T18:36:09.345Z,-0.80
2022-12-08T18:38:39.496Z,-0.93
2022-12-08T18:41:10.123Z,-0.86
2022-12-08T18:43:38.337Z,-0.86
2022-12-08T18:46:09.419Z,-1.02
2022-12-08T18:48:37.907Z,-1.28
2022-12-08T18:51:10.463Z,-1.44
2022-12-08T18:53:39.841Z,-1.53
2022-12-08T18:56:08.622Z,-1.56
2022-12-08T18:58:36.879Z,-1.54
2022-12-08T19:01:04.850Z,-1.67
2022-12-08T19:03:32.847Z,-1.71
2022-12-08T19:06:04.982Z,-1.79
2022-12-08T19:08:33.003Z,-1.77
2022-12-08T19:11:02.723Z,-1.64
2022-12-08T19:13:31.908Z,-1.56
2022-12-08T19:15:59.888Z,-1.32
2022-12-08T19:18:27.877Z,-1.37
2022-12-08T19:20:56.905Z,-1.70
2022-12-08T19:23:24.846Z,-1.85
2022-12-08T19:25:52.782Z,-1.81
2022-12-08T19:28:22.031Z,-1.91
2022-12-08T19:30:49.977Z,-2.02
2022-12-08T19:33:18.010Z,-2.10
2022-12-08T19:35:52.213Z,-2.04
2022-12-08T19:38:20.791Z,-1.85
2022-12-08T19:41:08.298Z,-1.99
2022-12-08T19:43:54.847Z,-2.21
2022-12-08T19:46:22.898Z,-2.42
2022-12-08T19:48:50.897Z,-2.44
2022-12-08T19:51:18.880Z,-2.56
2022-12-08T19:53:47.957Z,-2.65
2022-12-08T19:56:16.130Z,-2.66
2022-12-08T19:58:45.453Z,-2.70
2022-12-08T20:01:13.500Z,-2.66
2022-12-08T20:03:41.497Z,-2.55
2022-12-08T20:06:14.323Z,-2.68
2022-12-08T20:08:47.544Z,-2.68
2022-12-08T20:11:18.270Z,-2.67
2022-12-08T20:13:47.928Z,-2.74
2022-12-08T20:16:16.678Z,-2.70
2022-12-08T20:18:45.987Z,-2.81
2022-12-08T20:21:13.899Z,-2.86
2022-12-08T20:23:41.841Z,-2.92
2022-12-08T20:26:15.629Z,-2.88
2022-12-08T20:28:43.582Z,-2.80
2022-12-08T20:31:19.640Z,-2.71
2022-12-08T20:33:48.245Z,-2.79
2022-12-08T20:36:18.750Z,-2.96
2022-12-08T20:38:46.806Z,-2.97
2022-12-08T20:41:16.112Z,-2.99
2022-12-08T20:43:44.138Z,-2.97
2022-12-08T20:46:14.395Z,-2.91
2022-12-08T20:48:44.935Z,-2.98
2022-12-08T20:51:14.324Z,-2.82
2022-12-08T20:53:42.240Z,-2.88
2022-12-08T20:56:15.147Z,-2.88
2022-12-08T20:58:44.067Z,-2.52
2022-12-08T21:01:12.894Z,-2.45
2022-12-08T21:03:41.564Z,-2.56
2022-12-08T21:06:11.538Z,-2.53
2022-12-08T21:08:40.446Z,-2.27
2022-12-08T21:11:09.738Z,-2.29
2022-12-08T21:13:37.998Z,-1.98
2022-12-08T21:16:06.668Z,-1.88
2022-12-08T21:18:39.477Z,-1.66
2022-12-08T21:21:11.306Z,-1.63
2022-12-08T21:23:39.386Z,-1.61
2022-12-08T21:26:13.077Z,-1.56
2022-12-08T21:28:41.660Z,-1.57
2022-12-08T21:31:09.873Z,-1.65
2022-12-08T21:33:37.978Z,-1.58
2022-12-08T21:36:08.780Z,-1.42
2022-12-08T21:38:39.464Z,-1.43
2022-12-08T21:41:09.431Z,-1.28
2022-12-08T21:43:37.840Z,-1.26
2022-12-08T21:46:15.903Z,-1.16
2022-12-08T21:48:43.974Z,-0.93
2022-12-08T21:51:11.997Z,-0.95
2022-12-08T21:53:41.386Z,-1.02
2022-12-08T21:56:10.264Z,-1.06
2022-12-08T21:58:39.809Z,-1.02
2022-12-08T22:01:08.920Z,-1.13
2022-12-08T22:03:37.772Z,-1.12
2022-12-08T22:06:07.040Z,-0.76
2022-12-08T22:08:35.415Z,-0.63
2022-12-08T22:11:05.265Z,-0.83
2022-12-08T22:13:35.374Z,-0.95
2022-12-08T22:16:04.904Z,-0.90
2022-12-08T22:18:33.269Z,-0.87
2022-12-08T22:21:01.537Z,-0.80
2022-12-08T22:23:30.042Z,-0.63
2022-12-08T22:25:58.808Z,-0.81
2022-12-08T22:28:29.559Z,-0.94
2022-12-08T22:30:57.482Z,-1.06
2022-12-08T22:33:25.653Z,-0.99
2022-12-08T22:35:57.472Z,-0.85
2022-12-08T22:38:25.938Z,-0.92
2022-12-08T22:40:54.271Z,-0.90
2022-12-08T22:43:22.685Z,-0.85
2022-12-08T22:45:52.047Z,-0.98
2022-12-08T22:48:20.197Z,-1.12
2022-12-08T22:50:48.205Z,-1.04
2022-12-08T22:53:16.322Z,-1.02
2022-12-08T22:55:44.775Z,-0.91
2022-12-08T22:58:12.759Z,-0.90
2022-12-08T23:00:40.722Z,-0.86
2022-12-08T23:03:10.406Z,-1.02
2022-12-08T23:05:40.644Z,-1.05
2022-12-08T23:08:10.041Z,-1.02
2022-12-08T23:10:37.964Z,-1.07
2022-12-08T23:13:05.870Z,-1.10
2022-12-08T23:15:35.114Z,-1.19
2022-12-08T23:18:03.138Z,-1.24
2022-12-08T23:20:32.935Z,-1.22
2022-12-08T23:23:00.889Z,-1.09
2022-12-08T23:25:28.768Z,-1.08
2022-12-08T23:27:56.661Z,-1.10
2022-12-08T23:30:24.640Z,-1.17
2022-12-08T23:32:56.281Z,-1.21
2022-12-08T23:35:24.416Z,-1.18
2022-12-08T23:37:53.814Z,-1.04
2022-12-08T23:40:21.698Z,-0.93
2022-12-08T23:42:49.721Z,-0.90
2022-12-08T23:45:17.674Z,-0.82
2022-12-08T23:47:45.614Z,-0.85
2022-12-08T23:50:13.624Z,-0.94
2022-12-08T23:52:41.665Z,-0.99
2022-12-08T23:55:11.784Z,-1.01
2022-12-08T23:57:39.730Z,-1.18
